Ansley, Louisiana
Current Conditions -  °F | °C
As of 4:55 AM on Friday 31 Oct 2014 (Local Time) from KRSN Reporting Station
Clear Clear  
Wind Chill: 54°   Ceiling: Unl
Heat Index: 54°   Visibility: 10mi
Dew Point: 47°   Wind: 3mph
Humidity: 77%   Direction: 320°NW
Pressure: 30.1"   Gusts: NA
Location:  32.5075°N, 92.6828°W
Report Text: KRSN 310955Z AUTO 32003KT 10SM CLR 12/08 A3010 RMK AO2 T01200081
Loading
Personal Weather Stations






























Interactive Weather Map New forecast layout! Learn more

10-Day Weather Forecast

Advertisements
Track Severe Weather on mobile